Terminal Aerodrome Forecast
Issued by NWS

Home | Current Version | Previous Version | Text Only | Print | Product List | Glossary On
Versions: 1 2 3 4 5 6 7 8 9 10 11 12 13 14 15 16 17 18 19 20 21 22 23 24 25 26 27 28
542
FTUS45 KGJT 100539
TAFVEL
TAF
KVEL 100539Z 1006/1106 25003KT P6SM SCT150
     FM101200 28003KT P6SM OVC100
     FM101500 VRB03KT P6SM -SHSN OVC050
     FM101900 VRB03KT P6SM -SN SCT015 OVC025
     FM102200 29005KT P6SM -SN SCT015 OVC025=

USA.gov is the U.S. government's official web portal to all federal, state and local government web resources and services.